Terminal Aerodrome Forecast
Issued by NWS Quad Cities IA IL

Home | Current Version | Previous Version | Text Only | Print | Product List | Glossary On
Versions: 1 2 3 4 5 6 7 8 9 10 11 12 13 14 15 16 17
000
FTUS43 KDVN 142300
TAFMLI
TAF
KMLI 142320Z 1500/1524 23006KT P6SM SCT050 BKN120 PROB30 1510/1513
      -SHRA BKN040
     FM151300 18004KT 5SM -RA BR BKN025 OVC050
     FM151700 30008KT P6SM OVC035
      TEMPO 1517/1520 -SHRA
     FM152000 33011KT P6SM BKN050=

USA.gov is the U.S. government's official web portal to all federal, state and local government web resources and services.